Milwaukee, Wisconsin
Traffic Map
Current Weather Conditions
Milwaukee, Wisconsin
Broken Clouds
Broken Clouds
22°
Feels Like: 22°
Wind Chill: 22° Ceiling: 1500
Heat Index: 22° Visibility: 9mi
Dew Point: 19° Wind: 12mph
Humidity: 84% Direction: 230° (SW)
Pressure: 29.81in Gusts: 0mph
Raw Report DataKMKE 301214Z 23010KT 9SM BKN015 BKN200 BKN250 22/19 A2981 RMK AO2 T02220194
Traffic Incident Summary
Active as of:
Severity:
Category:
InformationThere was an issue retrieving the traffic information for this location. Please try a different location or try again shortly.
Advertisements
Track Severe Weather on mobile